This is the latest recevied weather packets stored in our database for station/object N4AN. If no packets are shown the sender has not sent any weather packets the latest 10 day(s).
| Time | Temp. | Humidity | Pressure | Rain* | Wind** | Luminosity | Snow |
|---|---|---|---|---|---|---|---|
| 1787876874 | 30.56° C | 70% | 1011 hPa | 0 mm | - | - | - |
| 1787876574 | 31.11° C | 70% | 1011 hPa | 0 mm | - | - | - |
| 1787876274 | 30.56° C | 70% | 1011 hPa | 0 mm | - | - | - |
| 1787875972 | 30° C | 71% | 1010.8 hPa | 0 mm | - | - | - |
| 1787875672 | 30° C | 71% | 1010.7 hPa | 0 mm | - | - | - |
| 1787875371 | 31.67° C | 66% | 1010.6 hPa | 0 mm | - | - | - |
| 1787875070 | 32.78° C | 64% | 1010.5 hPa | 0 mm | - | - | - |
| 1787874770 | 32.22° C | 64% | 1010.5 hPa | 0 mm | - | - | - |
| 1787874225 | 32.78° C | 63% | 1010.3 hPa | 0 mm | - | - | - |
| 1787874169 | 32.78° C | 63% | 1010.3 hPa | 0 mm | - | - | - |
| 1787873869 | 32.22° C | 66% | 1010.3 hPa | 0 mm | - | - | - |
| 1787873569 | 32.22° C | 66% | 1010.3 hPa | 0 mm | - | - | - |
| 1787873269 | 32.22° C | 65% | 1010.2 hPa | 0 mm | - | - | - |
| 1787872968 | 32.22° C | 65% | 1010.1 hPa | 0 mm | - | - | - |
| 1787872668 | 32.22° C | 64% | 1009.9 hPa | 0 mm | - | - | - |
| 1787872368 | 32.22° C | 64% | 1009.9 hPa | 0 mm | - | - | - |
| 1787872066 | 32.78° C | 64% | 1009.7 hPa | 0 mm | - | - | - |
| 1787871762 | 32.22° C | 64% | 1009.6 hPa | 0 mm | - | - | - |
| 1787871460 | 32.78° C | 64% | 1009.7 hPa | 0 mm | - | - | - |
| 1787871157 | 32.78° C | 64% | 1009.7 hPa | 0 mm | - | - | - |
| 1787870857 | 32.22° C | 66% | 1009.6 hPa | 0 mm | - | - | - |
| 1787870557 | 32.22° C | 66% | 1009.7 hPa | 0 mm | - | - | - |
| 1787870256 | 31.67° C | 66% | 1009.7 hPa | 0 mm | - | - | - |
| 1787869956 | 31.11° C | 67% | 1009.7 hPa | 0 mm | - | - | - |
| 1787869652 | 31.67° C | 66% | 1009.5 hPa | 0 mm | - | - | - |
* Rain latest hour (hover to see other rain measurements)
** Current wind speed in m/s (hover to see current wind gust speed)